sensor_id;sensor_type;location;lat;lon;timestamp;P1;durP1;ratioP1;P2;durP2;ratioP2
46266;SDS011;31998;48.798;15.066;2023-05-10T00:01:41;5.50;;;4.77;;
46266;SDS011;31998;48.798;15.066;2023-05-10T00:04:07;4.77;;;4.40;;
46266;SDS011;31998;48.798;15.066;2023-05-10T00:06:32;3.43;;;3.23;;
46266;SDS011;31998;48.798;15.066;2023-05-10T00:08:57;3.73;;;3.63;;
46266;SDS011;31998;48.798;15.066;2023-05-10T00:11:23;4.00;;;3.70;;
46266;SDS011;31998;48.798;15.066;2023-05-10T00:13:48;4.20;;;3.67;;
46266;SDS011;31998;48.798;15.066;2023-05-10T00:16:13;4.00;;;3.90;;
46266;SDS011;31998;48.798;15.066;2023-05-10T00:18:39;3.90;;;3.80;;
46266;SDS011;31998;48.798;15.066;2023-05-10T00:21:05;3.97;;;3.77;;
46266;SDS011;31998;48.798;15.066;2023-05-10T00:23:30;4.33;;;3.97;;
46266;SDS011;31998;48.798;15.066;2023-05-10T00:25:55;10.43;;;4.20;;
46266;SDS011;31998;48.798;15.066;2023-05-10T00:28:20;3.50;;;3.30;;
46266;SDS011;31998;48.798;15.066;2023-05-10T00:30:46;3.93;;;3.60;;
46266;SDS011;31998;48.798;15.066;2023-05-10T00:33:11;4.47;;;4.07;;
46266;SDS011;31998;48.798;15.066;2023-05-10T00:35:36;5.10;;;4.17;;
46266;SDS011;31998;48.798;15.066;2023-05-10T00:38:02;4.37;;;4.00;;
46266;SDS011;31998;48.798;15.066;2023-05-10T00:40:28;3.57;;;3.37;;
46266;SDS011;31998;48.798;15.066;2023-05-10T00:42:53;3.77;;;3.57;;
46266;SDS011;31998;48.798;15.066;2023-05-10T00:45:19;5.03;;;3.90;;
46266;SDS011;31998;48.798;15.066;2023-05-10T00:47:44;3.77;;;3.57;;
46266;SDS011;31998;48.798;15.066;2023-05-10T00:50:09;4.23;;;3.93;;
46266;SDS011;31998;48.798;15.066;2023-05-10T00:52:35;3.80;;;3.60;;
46266;SDS011;31998;48.798;15.066;2023-05-10T00:55:00;4.90;;;3.93;;
46266;SDS011;31998;48.798;15.066;2023-05-10T00:57:26;4.00;;;3.80;;
46266;SDS011;31998;48.798;15.066;2023-05-10T00:59:51;5.73;;;3.50;;
46266;SDS011;31998;48.798;15.066;2023-05-10T01:02:17;3.40;;;3.30;;
46266;SDS011;31998;48.798;15.066;2023-05-10T01:04:42;3.83;;;3.63;;
46266;SDS011;31998;48.798;15.066;2023-05-10T01:07:07;3.47;;;3.37;;
46266;SDS011;31998;48.798;15.066;2023-05-10T01:09:33;4.27;;;3.87;;
46266;SDS011;31998;48.798;15.066;2023-05-10T01:11:59;3.90;;;3.70;;
46266;SDS011;31998;48.798;15.066;2023-05-10T01:14:24;4.30;;;3.60;;
46266;SDS011;31998;48.798;15.066;2023-05-10T01:16:50;3.50;;;3.33;;
46266;SDS011;31998;48.798;15.066;2023-05-10T01:34:32;4.03;;;3.73;;
46266;SDS011;31998;48.798;15.066;2023-05-10T01:37:09;3.97;;;3.87;;
46266;SDS011;31998;48.798;15.066;2023-05-10T01:39:45;4.40;;;4.17;;
46266;SDS011;31998;48.798;15.066;2023-05-10T01:42:14;4.53;;;4.33;;
46266;SDS011;31998;48.798;15.066;2023-05-10T01:49:32;4.63;;;4.43;;
46266;SDS011;31998;48.798;15.066;2023-05-10T01:52:00;4.10;;;3.80;;
46266;SDS011;31998;48.798;15.066;2023-05-10T01:54:28;4.80;;;4.50;;
46266;SDS011;31998;48.798;15.066;2023-05-10T01:56:59;4.20;;;3.93;;
46266;SDS011;31998;48.798;15.066;2023-05-10T01:59:26;4.33;;;3.93;;
46266;SDS011;31998;48.798;15.066;2023-05-10T02:01:53;4.83;;;4.53;;
46266;SDS011;31998;48.798;15.066;2023-05-10T02:04:19;3.93;;;3.67;;
46266;SDS011;31998;48.798;15.066;2023-05-10T02:06:46;4.00;;;3.70;;
46266;SDS011;31998;48.798;15.066;2023-05-10T02:09:12;3.47;;;3.37;;
46266;SDS011;31998;48.798;15.066;2023-05-10T02:11:39;4.93;;;3.97;;
46266;SDS011;31998;48.798;15.066;2023-05-10T02:14:07;5.43;;;3.97;;
46266;SDS011;31998;48.798;15.066;2023-05-10T02:16:33;4.93;;;4.63;;
46266;SDS011;31998;48.798;15.066;2023-05-10T02:19:00;4.40;;;4.10;;
46266;SDS011;31998;48.798;15.066;2023-05-10T02:21:26;7.10;;;3.80;;
46266;SDS011;31998;48.798;15.066;2023-05-10T02:23:52;4.17;;;3.97;;
46266;SDS011;31998;48.798;15.066;2023-05-10T02:26:18;4.23;;;4.00;;
46266;SDS011;31998;48.798;15.066;2023-05-10T02:28:43;4.30;;;4.10;;
46266;SDS011;31998;48.798;15.066;2023-05-10T02:31:09;4.30;;;3.93;;
46266;SDS011;31998;48.798;15.066;2023-05-10T02:33:35;13.93;;;5.30;;
46266;SDS011;31998;48.798;15.066;2023-05-10T02:36:02;4.07;;;3.97;;
46266;SDS011;31998;48.798;15.066;2023-05-10T02:38:27;4.87;;;4.40;;
46266;SDS011;31998;48.798;15.066;2023-05-10T02:40:53;5.73;;;3.97;;
46266;SDS011;31998;48.798;15.066;2023-05-10T02:43:18;4.30;;;3.90;;
46266;SDS011;31998;48.798;15.066;2023-05-10T02:45:46;3.57;;;3.30;;
46266;SDS011;31998;48.798;15.066;2023-05-10T02:48:12;4.30;;;3.97;;
46266;SDS011;31998;48.798;15.066;2023-05-10T02:50:37;5.60;;;4.07;;
46266;SDS011;31998;48.798;15.066;2023-05-10T02:53:09;4.30;;;4.00;;
46266;SDS011;31998;48.798;15.066;2023-05-10T02:55:36;4.40;;;4.20;;
46266;SDS011;31998;48.798;15.066;2023-05-10T02:58:02;5.17;;;4.50;;
46266;SDS011;31998;48.798;15.066;2023-05-10T03:00:27;4.57;;;4.20;;
46266;SDS011;31998;48.798;15.066;2023-05-10T03:02:53;5.50;;;5.00;;
46266;SDS011;31998;48.798;15.066;2023-05-10T03:05:18;4.30;;;4.00;;
46266;SDS011;31998;48.798;15.066;2023-05-10T03:07:44;5.30;;;4.40;;
46266;SDS011;31998;48.798;15.066;2023-05-10T03:10:10;12.70;;;4.83;;
46266;SDS011;31998;48.798;15.066;2023-05-10T03:12:52;4.63;;;4.00;;
46266;SDS011;31998;48.798;15.066;2023-05-10T03:17:53;6.90;;;4.60;;
46266;SDS011;31998;48.798;15.066;2023-05-10T03:20:21;4.33;;;4.10;;
46266;SDS011;31998;48.798;15.066;2023-05-10T03:22:49;5.03;;;4.60;;
46266;SDS011;31998;48.798;15.066;2023-05-10T03:25:15;6.80;;;4.40;;
46266;SDS011;31998;48.798;15.066;2023-05-10T03:27:41;6.73;;;5.23;;
46266;SDS011;31998;48.798;15.066;2023-05-10T03:30:08;4.80;;;4.50;;
46266;SDS011;31998;48.798;15.066;2023-05-10T03:32:33;5.50;;;5.00;;
46266;SDS011;31998;48.798;15.066;2023-05-10T03:34:59;5.20;;;4.80;;
46266;SDS011;31998;48.798;15.066;2023-05-10T03:37:24;5.00;;;4.80;;
46266;SDS011;31998;48.798;15.066;2023-05-10T03:39:50;4.60;;;4.33;;
46266;SDS011;31998;48.798;15.066;2023-05-10T03:42:15;4.23;;;3.93;;
46266;SDS011;31998;48.798;15.066;2023-05-10T03:44:42;4.77;;;4.37;;
46266;SDS011;31998;48.798;15.066;2023-05-10T03:47:07;5.17;;;4.87;;
46266;SDS011;31998;48.798;15.066;2023-05-10T03:49:33;6.70;;;5.30;;
46266;SDS011;31998;48.798;15.066;2023-05-10T03:51:58;4.70;;;4.40;;
46266;SDS011;31998;48.798;15.066;2023-05-10T03:54:23;8.60;;;4.87;;
46266;SDS011;31998;48.798;15.066;2023-05-10T03:56:48;8.70;;;4.97;;
46266;SDS011;31998;48.798;15.066;2023-05-10T03:59:14;8.97;;;5.00;;
46266;SDS011;31998;48.798;15.066;2023-05-10T04:01:39;5.33;;;5.00;;
46266;SDS011;31998;48.798;15.066;2023-05-10T04:04:04;4.43;;;4.13;;
46266;SDS011;31998;48.798;15.066;2023-05-10T04:06:29;4.90;;;4.60;;
46266;SDS011;31998;48.798;15.066;2023-05-10T04:08:55;5.17;;;4.87;;
46266;SDS011;31998;48.798;15.066;2023-05-10T04:11:21;4.70;;;4.40;;
46266;SDS011;31998;48.798;15.066;2023-05-10T04:13:47;15.63;;;5.00;;
46266;SDS011;31998;48.798;15.066;2023-05-10T04:16:12;4.93;;;4.53;;
46266;SDS011;31998;48.798;15.066;2023-05-10T04:18:37;3.80;;;3.60;;
46266;SDS011;31998;48.798;15.066;2023-05-10T04:21:02;5.60;;;4.70;;
46266;SDS011;31998;48.798;15.066;2023-05-10T04:23:28;4.77;;;4.37;;
46266;SDS011;31998;48.798;15.066;2023-05-10T04:25:58;7.73;;;4.23;;
46266;SDS011;31998;48.798;15.066;2023-05-10T04:28:24;6.00;;;5.50;;
46266;SDS011;31998;48.798;15.066;2023-05-10T04:30:49;5.60;;;4.50;;
46266;SDS011;31998;48.798;15.066;2023-05-10T04:33:14;5.03;;;4.67;;
46266;SDS011;31998;48.798;15.066;2023-05-10T04:35:40;9.60;;;5.50;;
46266;SDS011;31998;48.798;15.066;2023-05-10T04:38:05;5.20;;;4.77;;
46266;SDS011;31998;48.798;15.066;2023-05-10T04:40:31;4.37;;;4.07;;
46266;SDS011;31998;48.798;15.066;2023-05-10T04:42:56;5.00;;;4.70;;
46266;SDS011;31998;48.798;15.066;2023-05-10T04:45:21;5.47;;;5.00;;
46266;SDS011;31998;48.798;15.066;2023-05-10T04:47:47;4.80;;;4.50;;
46266;SDS011;31998;48.798;15.066;2023-05-10T04:50:12;7.63;;;4.83;;
46266;SDS011;31998;48.798;15.066;2023-05-10T04:52:37;7.90;;;5.33;;
46266;SDS011;31998;48.798;15.066;2023-05-10T04:55:02;9.40;;;5.77;;
46266;SDS011;31998;48.798;15.066;2023-05-10T04:57:28;5.60;;;5.20;;
46266;SDS011;31998;48.798;15.066;2023-05-10T04:59:53;5.63;;;5.30;;
46266;SDS011;31998;48.798;15.066;2023-05-10T05:02:18;9.73;;;5.63;;
46266;SDS011;31998;48.798;15.066;2023-05-10T05:04:43;5.90;;;5.27;;
46266;SDS011;31998;48.798;15.066;2023-05-10T05:07:09;6.20;;;5.70;;
46266;SDS011;31998;48.798;15.066;2023-05-10T05:09:34;5.43;;;5.13;;
46266;SDS011;31998;48.798;15.066;2023-05-10T05:11:59;5.47;;;5.17;;
46266;SDS011;31998;48.798;15.066;2023-05-10T05:14:25;5.80;;;5.40;;
46266;SDS011;31998;48.798;15.066;2023-05-10T05:16:50;8.63;;;6.07;;
46266;SDS011;31998;48.798;15.066;2023-05-10T05:19:16;5.43;;;5.03;;
46266;SDS011;31998;48.798;15.066;2023-05-10T05:21:41;5.93;;;5.43;;
46266;SDS011;31998;48.798;15.066;2023-05-10T05:24:06;8.73;;;5.27;;
46266;SDS011;31998;48.798;15.066;2023-05-10T05:26:32;5.03;;;4.73;;
46266;SDS011;31998;48.798;15.066;2023-05-10T05:28:57;6.23;;;5.70;;
46266;SDS011;31998;48.798;15.066;2023-05-10T05:31:22;7.03;;;6.33;;
46266;SDS011;31998;48.798;15.066;2023-05-10T05:33:47;5.90;;;5.50;;
46266;SDS011;31998;48.798;15.066;2023-05-10T05:36:13;7.27;;;4.97;;
46266;SDS011;31998;48.798;15.066;2023-05-10T05:38:38;5.47;;;5.13;;
46266;SDS011;31998;48.798;15.066;2023-05-10T05:41:03;5.53;;;5.23;;
46266;SDS011;31998;48.798;15.066;2023-05-10T05:43:28;7.20;;;6.47;;
46266;SDS011;31998;48.798;15.066;2023-05-10T05:45:53;5.60;;;5.30;;
46266;SDS011;31998;48.798;15.066;2023-05-10T05:48:19;6.00;;;5.50;;
46266;SDS011;31998;48.798;15.066;2023-05-10T05:50:44;6.30;;;5.80;;
46266;SDS011;31998;48.798;15.066;2023-05-10T05:53:10;5.67;;;5.20;;
46266;SDS011;31998;48.798;15.066;2023-05-10T05:55:35;8.63;;;5.63;;
46266;SDS011;31998;48.798;15.066;2023-05-10T05:58:01;5.23;;;4.93;;
46266;SDS011;31998;48.798;15.066;2023-05-10T06:00:26;5.37;;;5.07;;
46266;SDS011;31998;48.798;15.066;2023-05-10T06:02:51;6.10;;;5.50;;
46266;SDS011;31998;48.798;15.066;2023-05-10T06:05:16;6.00;;;5.60;;
46266;SDS011;31998;48.798;15.066;2023-05-10T06:07:41;5.27;;;4.77;;
46266;SDS011;31998;48.798;15.066;2023-05-10T06:10:07;6.37;;;5.27;;
46266;SDS011;31998;48.798;15.066;2023-05-10T06:12:32;5.20;;;4.80;;
46266;SDS011;31998;48.798;15.066;2023-05-10T06:14:58;6.13;;;4.90;;
46266;SDS011;31998;48.798;15.066;2023-05-10T06:17:23;5.10;;;4.60;;
46266;SDS011;31998;48.798;15.066;2023-05-10T06:19:49;6.17;;;5.00;;
46266;SDS011;31998;48.798;15.066;2023-05-10T06:22:14;6.10;;;4.80;;
46266;SDS011;31998;48.798;15.066;2023-05-10T06:24:39;7.33;;;4.70;;
46266;SDS011;31998;48.798;15.066;2023-05-10T06:27:05;4.50;;;4.20;;
46266;SDS011;31998;48.798;15.066;2023-05-10T06:29:30;8.37;;;5.00;;
46266;SDS011;31998;48.798;15.066;2023-05-10T06:31:56;5.57;;;5.07;;
46266;SDS011;31998;48.798;15.066;2023-05-10T06:34:21;5.07;;;4.60;;
46266;SDS011;31998;48.798;15.066;2023-05-10T06:36:46;7.60;;;4.70;;
46266;SDS011;31998;48.798;15.066;2023-05-10T06:39:11;4.00;;;3.80;;
46266;SDS011;31998;48.798;15.066;2023-05-10T06:41:37;4.67;;;4.20;;
46266;SDS011;31998;48.798;15.066;2023-05-10T06:44:02;7.13;;;5.67;;
46266;SDS011;31998;48.798;15.066;2023-05-10T06:46:28;4.30;;;4.00;;
46266;SDS011;31998;48.798;15.066;2023-05-10T06:48:53;5.10;;;4.90;;
46266;SDS011;31998;48.798;15.066;2023-05-10T06:51:19;4.43;;;4.10;;
46266;SDS011;31998;48.798;15.066;2023-05-10T06:53:46;5.53;;;4.47;;
46266;SDS011;31998;48.798;15.066;2023-05-10T06:56:11;5.30;;;3.73;;
46266;SDS011;31998;48.798;15.066;2023-05-10T06:58:36;3.90;;;3.70;;
46266;SDS011;31998;48.798;15.066;2023-05-10T07:01:02;4.90;;;4.60;;
46266;SDS011;31998;48.798;15.066;2023-05-10T07:03:27;4.23;;;4.03;;
46266;SDS011;31998;48.798;15.066;2023-05-10T07:05:53;7.03;;;4.60;;
46266;SDS011;31998;48.798;15.066;2023-05-10T07:08:18;4.80;;;4.47;;
46266;SDS011;31998;48.798;15.066;2023-05-10T07:10:43;4.63;;;4.33;;
46266;SDS011;31998;48.798;15.066;2023-05-10T07:13:09;5.57;;;4.83;;
46266;SDS011;31998;48.798;15.066;2023-05-10T07:15:35;3.93;;;3.63;;
46266;SDS011;31998;48.798;15.066;2023-05-10T07:18:00;3.80;;;3.60;;
46266;SDS011;31998;48.798;15.066;2023-05-10T07:20:26;3.60;;;3.40;;
46266;SDS011;31998;48.798;15.066;2023-05-10T07:22:51;4.07;;;3.77;;
46266;SDS011;31998;48.798;15.066;2023-05-10T07:25:16;4.30;;;4.00;;
46266;SDS011;31998;48.798;15.066;2023-05-10T07:27:41;9.10;;;4.03;;
46266;SDS011;31998;48.798;15.066;2023-05-10T07:30:07;3.80;;;3.60;;
46266;SDS011;31998;48.798;15.066;2023-05-10T07:32:32;3.80;;;3.60;;
46266;SDS011;31998;48.798;15.066;2023-05-10T07:34:58;4.00;;;3.60;;
46266;SDS011;31998;48.798;15.066;2023-05-10T07:37:23;3.40;;;3.10;;
46266;SDS011;31998;48.798;15.066;2023-05-10T07:39:48;3.53;;;3.37;;
46266;SDS011;31998;48.798;15.066;2023-05-10T07:42:13;4.00;;;3.60;;
46266;SDS011;31998;48.798;15.066;2023-05-10T07:44:39;4.07;;;3.77;;
46266;SDS011;31998;48.798;15.066;2023-05-10T07:47:04;3.93;;;3.73;;
46266;SDS011;31998;48.798;15.066;2023-05-10T07:49:29;4.10;;;3.90;;
46266;SDS011;31998;48.798;15.066;2023-05-10T07:51:54;3.60;;;3.40;;
46266;SDS011;31998;48.798;15.066;2023-05-10T07:54:20;4.50;;;4.27;;
46266;SDS011;31998;48.798;15.066;2023-05-10T07:56:45;4.30;;;4.00;;
46266;SDS011;31998;48.798;15.066;2023-05-10T07:59:14;7.03;;;3.60;;
46266;SDS011;31998;48.798;15.066;2023-05-10T08:01:39;3.90;;;3.60;;
46266;SDS011;31998;48.798;15.066;2023-05-10T08:04:05;4.40;;;3.73;;
46266;SDS011;31998;48.798;15.066;2023-05-10T08:06:30;5.73;;;3.77;;
46266;SDS011;31998;48.798;15.066;2023-05-10T08:08:55;4.70;;;4.17;;
46266;SDS011;31998;48.798;15.066;2023-05-10T08:11:21;5.53;;;3.47;;
46266;SDS011;31998;48.798;15.066;2023-05-10T08:13:46;4.33;;;3.90;;
46266;SDS011;31998;48.798;15.066;2023-05-10T08:16:12;3.60;;;3.30;;
46266;SDS011;31998;48.798;15.066;2023-05-10T08:18:38;4.90;;;3.97;;
46266;SDS011;31998;48.798;15.066;2023-05-10T08:21:03;4.27;;;4.07;;
46266;SDS011;31998;48.798;15.066;2023-05-10T08:23:28;3.23;;;3.03;;
46266;SDS011;31998;48.798;15.066;2023-05-10T08:25:54;3.07;;;2.93;;
46266;SDS011;31998;48.798;15.066;2023-05-10T08:28:19;7.87;;;3.83;;
46266;SDS011;31998;48.798;15.066;2023-05-10T08:30:44;4.20;;;3.47;;
46266;SDS011;31998;48.798;15.066;2023-05-10T08:33:09;3.87;;;3.53;;
46266;SDS011;31998;48.798;15.066;2023-05-10T08:35:35;4.50;;;3.40;;
46266;SDS011;31998;48.798;15.066;2023-05-10T08:38:00;4.13;;;3.73;;
46266;SDS011;31998;48.798;15.066;2023-05-10T08:40:26;5.23;;;3.93;;
46266;SDS011;31998;48.798;15.066;2023-05-10T08:42:53;4.20;;;3.90;;
46266;SDS011;31998;48.798;15.066;2023-05-10T08:45:21;3.90;;;3.70;;
46266;SDS011;31998;48.798;15.066;2023-05-10T08:47:48;3.30;;;3.10;;
46266;SDS011;31998;48.798;15.066;2023-05-10T08:50:13;3.30;;;2.97;;
46266;SDS011;31998;48.798;15.066;2023-05-10T08:52:39;3.83;;;3.60;;
46266;SDS011;31998;48.798;15.066;2023-05-10T08:55:05;4.30;;;3.10;;
46266;SDS011;31998;48.798;15.066;2023-05-10T08:57:30;5.23;;;3.60;;
46266;SDS011;31998;48.798;15.066;2023-05-10T08:59:55;6.30;;;2.90;;
46266;SDS011;31998;48.798;15.066;2023-05-10T09:02:21;5.97;;;3.53;;
46266;SDS011;31998;48.798;15.066;2023-05-10T09:04:47;3.13;;;2.93;;
46266;SDS011;31998;48.798;15.066;2023-05-10T09:07:13;3.90;;;3.60;;
46266;SDS011;31998;48.798;15.066;2023-05-10T09:09:39;2.60;;;2.50;;
46266;SDS011;31998;48.798;15.066;2023-05-10T09:12:04;6.97;;;3.60;;
46266;SDS011;31998;48.798;15.066;2023-05-10T09:14:29;14.80;;;3.03;;
46266;SDS011;31998;48.798;15.066;2023-05-10T09:16:55;3.70;;;3.50;;
46266;SDS011;31998;48.798;15.066;2023-05-10T09:19:21;3.80;;;3.20;;
46266;SDS011;31998;48.798;15.066;2023-05-10T09:21:46;3.70;;;3.50;;
46266;SDS011;31998;48.798;15.066;2023-05-10T09:24:11;3.07;;;2.73;;
46266;SDS011;31998;48.798;15.066;2023-05-10T09:26:43;3.40;;;3.20;;
46266;SDS011;31998;48.798;15.066;2023-05-10T09:29:11;4.83;;;2.70;;
46266;SDS011;31998;48.798;15.066;2023-05-10T09:31:43;3.83;;;3.33;;
46266;SDS011;31998;48.798;15.066;2023-05-10T09:34:09;3.40;;;3.20;;
46266;SDS011;31998;48.798;15.066;2023-05-10T09:36:35;3.40;;;3.20;;
46266;SDS011;31998;48.798;15.066;2023-05-10T09:39:00;3.50;;;3.33;;
46266;SDS011;31998;48.798;15.066;2023-05-10T09:41:25;4.10;;;3.73;;
46266;SDS011;31998;48.798;15.066;2023-05-10T09:43:54;3.60;;;3.33;;
46266;SDS011;31998;48.798;15.066;2023-05-10T09:46:20;7.57;;;4.43;;
46266;SDS011;31998;48.798;15.066;2023-05-10T09:48:46;6.27;;;4.10;;
46266;SDS011;31998;48.798;15.066;2023-05-10T09:51:21;3.50;;;3.20;;
46266;SDS011;31998;48.798;15.066;2023-05-10T09:53:47;6.47;;;4.30;;
46266;SDS011;31998;48.798;15.066;2023-05-10T09:56:12;3.83;;;3.63;;
46266;SDS011;31998;48.798;15.066;2023-05-10T09:58:37;4.17;;;3.87;;
46266;SDS011;31998;48.798;15.066;2023-05-10T10:01:10;5.13;;;3.47;;
46266;SDS011;31998;48.798;15.066;2023-05-10T10:03:40;4.70;;;3.70;;
46266;SDS011;31998;48.798;15.066;2023-05-10T10:06:07;4.93;;;3.30;;
46266;SDS011;31998;48.798;15.066;2023-05-10T10:08:32;3.73;;;3.43;;
46266;SDS011;31998;48.798;15.066;2023-05-10T10:10:57;7.20;;;3.07;;
46266;SDS011;31998;48.798;15.066;2023-05-10T10:13:23;3.33;;;3.13;;
46266;SDS011;31998;48.798;15.066;2023-05-10T10:15:48;7.37;;;2.40;;
46266;SDS011;31998;48.798;15.066;2023-05-10T10:18:15;11.00;;;3.17;;
46266;SDS011;31998;48.798;15.066;2023-05-10T10:20:41;3.07;;;2.50;;
46266;SDS011;31998;48.798;15.066;2023-05-10T10:23:07;4.17;;;2.90;;
46266;SDS011;31998;48.798;15.066;2023-05-10T10:25:33;2.63;;;2.53;;
46266;SDS011;31998;48.798;15.066;2023-05-10T10:28:05;2.70;;;2.50;;
46266;SDS011;31998;48.798;15.066;2023-05-10T10:30:43;3.13;;;3.03;;
46266;SDS011;31998;48.798;15.066;2023-05-10T10:35:48;4.03;;;3.00;;
46266;SDS011;31998;48.798;15.066;2023-05-10T10:38:14;3.53;;;2.30;;
46266;SDS011;31998;48.798;15.066;2023-05-10T10:40:40;10.50;;;3.30;;
46266;SDS011;31998;48.798;15.066;2023-05-10T10:43:22;2.20;;;2.00;;
46266;SDS011;31998;48.798;15.066;2023-05-10T10:46:09;3.37;;;1.90;;
46266;SDS011;31998;48.798;15.066;2023-05-10T10:48:33;2.80;;;2.70;;
46266;SDS011;31998;48.798;15.066;2023-05-10T10:50:58;2.50;;;2.33;;
46266;SDS011;31998;48.798;15.066;2023-05-10T10:53:25;2.33;;;2.23;;
46266;SDS011;31998;48.798;15.066;2023-05-10T10:55:51;3.13;;;2.90;;
46266;SDS011;31998;48.798;15.066;2023-05-10T10:58:30;3.03;;;2.73;;
46266;SDS011;31998;48.798;15.066;2023-05-10T11:01:13;2.40;;;2.30;;
46266;SDS011;31998;48.798;15.066;2023-05-10T11:03:38;3.43;;;2.53;;
46266;SDS011;31998;48.798;15.066;2023-05-10T11:06:03;2.33;;;2.23;;
46266;SDS011;31998;48.798;15.066;2023-05-10T11:08:29;2.67;;;2.57;;
46266;SDS011;31998;48.798;15.066;2023-05-10T11:13:27;3.43;;;2.03;;
46266;SDS011;31998;48.798;15.066;2023-05-10T11:15:54;2.20;;;2.10;;
46266;SDS011;31998;48.798;15.066;2023-05-10T11:18:29;2.10;;;1.97;;
46266;SDS011;31998;48.798;15.066;2023-05-10T11:20:58;2.40;;;2.30;;
46266;SDS011;31998;48.798;15.066;2023-05-10T11:23:29;4.33;;;2.50;;
46266;SDS011;31998;48.798;15.066;2023-05-10T11:25:54;3.73;;;2.50;;
46266;SDS011;31998;48.798;15.066;2023-05-10T11:28:19;6.57;;;2.40;;
46266;SDS011;31998;48.798;15.066;2023-05-10T11:30:45;3.47;;;2.00;;
46266;SDS011;31998;48.798;15.066;2023-05-10T11:33:14;3.20;;;2.70;;
46266;SDS011;31998;48.798;15.066;2023-05-10T11:35:40;6.40;;;3.20;;
46266;SDS011;31998;48.798;15.066;2023-05-10T11:38:09;12.43;;;3.17;;
46266;SDS011;31998;48.798;15.066;2023-05-10T11:40:35;10.57;;;3.90;;
46266;SDS011;31998;48.798;15.066;2023-05-10T11:43:00;4.80;;;3.10;;
46266;SDS011;31998;48.798;15.066;2023-05-10T11:45:25;18.23;;;2.87;;
46266;SDS011;31998;48.798;15.066;2023-05-10T11:47:51;3.03;;;2.30;;
46266;SDS011;31998;48.798;15.066;2023-05-10T11:50:16;3.90;;;2.43;;
46266;SDS011;31998;48.798;15.066;2023-05-10T11:52:42;2.57;;;2.43;;
46266;SDS011;31998;48.798;15.066;2023-05-10T11:55:07;2.60;;;2.40;;
46266;SDS011;31998;48.798;15.066;2023-05-10T11:57:32;3.03;;;2.80;;
46266;SDS011;31998;48.798;15.066;2023-05-10T11:59:57;2.60;;;2.50;;
46266;SDS011;31998;48.798;15.066;2023-05-10T12:02:23;3.23;;;2.73;;
46266;SDS011;31998;48.798;15.066;2023-05-10T12:04:49;2.87;;;2.77;;
46266;SDS011;31998;48.798;15.066;2023-05-10T12:07:15;3.30;;;2.70;;
46266;SDS011;31998;48.798;15.066;2023-05-10T12:09:43;1.53;;;1.53;;
46266;SDS011;31998;48.798;15.066;2023-05-10T12:12:10;2.20;;;2.10;;
46266;SDS011;31998;48.798;15.066;2023-05-10T12:14:35;2.30;;;2.10;;
46266;SDS011;31998;48.798;15.066;2023-05-10T12:17:00;2.80;;;2.60;;
46266;SDS011;31998;48.798;15.066;2023-05-10T12:19:25;2.37;;;2.27;;
46266;SDS011;31998;48.798;15.066;2023-05-10T12:21:51;5.03;;;2.33;;
46266;SDS011;31998;48.798;15.066;2023-05-10T12:24:16;7.53;;;2.23;;
46266;SDS011;31998;48.798;15.066;2023-05-10T12:26:43;2.63;;;2.10;;
46266;SDS011;31998;48.798;15.066;2023-05-10T12:29:11;2.93;;;2.13;;
46266;SDS011;31998;48.798;15.066;2023-05-10T12:31:53;2.50;;;2.30;;
46266;SDS011;31998;48.798;15.066;2023-05-10T12:34:23;2.00;;;1.90;;
46266;SDS011;31998;48.798;15.066;2023-05-10T12:36:50;4.17;;;2.37;;
46266;SDS011;31998;48.798;15.066;2023-05-10T12:39:15;5.13;;;2.33;;
46266;SDS011;31998;48.798;15.066;2023-05-10T12:41:40;3.07;;;2.40;;
46266;SDS011;31998;48.798;15.066;2023-05-10T12:44:05;3.13;;;2.00;;
46266;SDS011;31998;48.798;15.066;2023-05-10T12:46:31;2.90;;;2.70;;
46266;SDS011;31998;48.798;15.066;2023-05-10T12:48:56;4.00;;;2.27;;
46266;SDS011;31998;48.798;15.066;2023-05-10T12:51:21;2.80;;;2.60;;
46266;SDS011;31998;48.798;15.066;2023-05-10T12:53:47;2.93;;;2.50;;
46266;SDS011;31998;48.798;15.066;2023-05-10T12:56:13;3.53;;;2.57;;
46266;SDS011;31998;48.798;15.066;2023-05-10T12:58:38;2.30;;;2.20;;
46266;SDS011;31998;48.798;15.066;2023-05-10T13:01:04;7.37;;;2.50;;
46266;SDS011;31998;48.798;15.066;2023-05-10T13:03:29;2.00;;;1.90;;
46266;SDS011;31998;48.798;15.066;2023-05-10T13:05:55;1.77;;;1.67;;
46266;SDS011;31998;48.798;15.066;2023-05-10T13:08:20;2.73;;;2.40;;
46266;SDS011;31998;48.798;15.066;2023-05-10T13:10:45;3.87;;;2.33;;
46266;SDS011;31998;48.798;15.066;2023-05-10T13:13:11;2.40;;;2.30;;
46266;SDS011;31998;48.798;15.066;2023-05-10T13:15:36;5.17;;;3.47;;
46266;SDS011;31998;48.798;15.066;2023-05-10T13:18:01;2.33;;;2.23;;
46266;SDS011;31998;48.798;15.066;2023-05-10T13:20:27;2.50;;;1.53;;
46266;SDS011;31998;48.798;15.066;2023-05-10T13:22:52;2.03;;;1.93;;
46266;SDS011;31998;48.798;15.066;2023-05-10T13:25:17;1.60;;;1.60;;
46266;SDS011;31998;48.798;15.066;2023-05-10T13:27:42;2.37;;;2.17;;
46266;SDS011;31998;48.798;15.066;2023-05-10T13:30:08;3.03;;;2.73;;
46266;SDS011;31998;48.798;15.066;2023-05-10T13:32:34;2.53;;;1.90;;
46266;SDS011;31998;48.798;15.066;2023-05-10T13:34:59;2.00;;;1.90;;
46266;SDS011;31998;48.798;15.066;2023-05-10T13:37:24;2.00;;;2.00;;
46266;SDS011;31998;48.798;15.066;2023-05-10T13:39:50;2.77;;;2.67;;
46266;SDS011;31998;48.798;15.066;2023-05-10T13:42:15;2.00;;;1.90;;
46266;SDS011;31998;48.798;15.066;2023-05-10T13:44:40;2.20;;;2.10;;
46266;SDS011;31998;48.798;15.066;2023-05-10T13:47:06;3.63;;;2.60;;
46266;SDS011;31998;48.798;15.066;2023-05-10T13:49:31;2.53;;;2.43;;
46266;SDS011;31998;48.798;15.066;2023-05-10T13:51:57;2.63;;;2.43;;
46266;SDS011;31998;48.798;15.066;2023-05-10T13:54:23;2.47;;;2.23;;
46266;SDS011;31998;48.798;15.066;2023-05-10T13:56:48;2.30;;;1.97;;
46266;SDS011;31998;48.798;15.066;2023-05-10T13:59:13;2.10;;;2.10;;
46266;SDS011;31998;48.798;15.066;2023-05-10T14:01:39;4.30;;;1.90;;
46266;SDS011;31998;48.798;15.066;2023-05-10T14:04:04;7.70;;;2.30;;
46266;SDS011;31998;48.798;15.066;2023-05-10T14:06:30;2.20;;;2.10;;
46266;SDS011;31998;48.798;15.066;2023-05-10T14:08:55;4.33;;;2.53;;
46266;SDS011;31998;48.798;15.066;2023-05-10T14:11:21;2.90;;;2.70;;
46266;SDS011;31998;48.798;15.066;2023-05-10T14:13:46;2.23;;;2.10;;
46266;SDS011;31998;48.798;15.066;2023-05-10T14:16:11;2.03;;;1.97;;
46266;SDS011;31998;48.798;15.066;2023-05-10T14:18:37;4.40;;;2.33;;
46266;SDS011;31998;48.798;15.066;2023-05-10T14:21:02;1.63;;;1.63;;
46266;SDS011;31998;48.798;15.066;2023-05-10T14:23:28;1.43;;;1.43;;
46266;SDS011;31998;48.798;15.066;2023-05-10T14:25:54;2.70;;;1.90;;
46266;SDS011;31998;48.798;15.066;2023-05-10T14:28:19;1.70;;;1.60;;
46266;SDS011;31998;48.798;15.066;2023-05-10T14:30:45;3.80;;;1.93;;
46266;SDS011;31998;48.798;15.066;2023-05-10T14:33:11;1.97;;;1.87;;
46266;SDS011;31998;48.798;15.066;2023-05-10T14:35:37;1.77;;;1.77;;
46266;SDS011;31998;48.798;15.066;2023-05-10T14:38:02;3.70;;;1.90;;
46266;SDS011;31998;48.798;15.066;2023-05-10T14:40:30;2.30;;;2.20;;
46266;SDS011;31998;48.798;15.066;2023-05-10T14:42:56;2.33;;;2.23;;
46266;SDS011;31998;48.798;15.066;2023-05-10T14:45:21;2.30;;;2.30;;
46266;SDS011;31998;48.798;15.066;2023-05-10T14:47:47;1.77;;;1.77;;
46266;SDS011;31998;48.798;15.066;2023-05-10T14:50:12;1.70;;;1.70;;
46266;SDS011;31998;48.798;15.066;2023-05-10T14:52:38;3.90;;;1.57;;
46266;SDS011;31998;48.798;15.066;2023-05-10T14:55:03;2.50;;;2.40;;